sensor_id;sensor_type;location;lat;lon;timestamp;pressure;altitude;pressure_sealevel;temperature;humidity
59443;BME280;45247;47.466;19.004;2022-08-01T00:01:45;99707.53;;;14.24;100.00
59443;BME280;45247;47.466;19.004;2022-08-01T00:04:13;99707.38;;;14.25;100.00
59443;BME280;45247;47.466;19.004;2022-08-01T00:06:41;99707.53;;;14.24;100.00
59443;BME280;45247;47.466;19.004;2022-08-01T00:09:09;99704.16;;;14.22;100.00
59443;BME280;45247;47.466;19.004;2022-08-01T00:11:50;99703.88;;;14.25;100.00
59443;BME280;45247;47.466;19.004;2022-08-01T00:14:32;99710.88;;;14.26;100.00
59443;BME280;45247;47.466;19.004;2022-08-01T00:17:02;99705.84;;;14.23;100.00
59443;BME280;45247;47.466;19.004;2022-08-01T00:19:33;99697.13;;;14.21;100.00
59443;BME280;45247;47.466;19.004;2022-08-01T00:22:01;99698.59;;;14.14;100.00
59443;BME280;45247;47.466;19.004;2022-08-01T00:24:30;99705.94;;;14.10;100.00
59443;BME280;45247;47.466;19.004;2022-08-01T00:26:58;99698.34;;;14.06;100.00
59443;BME280;45247;47.466;19.004;2022-08-01T00:29:26;99696.03;;;14.01;100.00
59443;BME280;45247;47.466;19.004;2022-08-01T00:32:16;99698.56;;;14.02;100.00
59443;BME280;45247;47.466;19.004;2022-08-01T00:34:44;99689.88;;;14.00;100.00
59443;BME280;45247;47.466;19.004;2022-08-01T00:37:13;99684.69;;;13.99;100.00
59443;BME280;45247;47.466;19.004;2022-08-01T00:39:41;99682.88;;;13.99;100.00
59443;BME280;45247;47.466;19.004;2022-08-01T00:42:11;99682.50;;;14.04;100.00
59443;BME280;45247;47.466;19.004;2022-08-01T00:44:40;99680.56;;;13.95;100.00
59443;BME280;45247;47.466;19.004;2022-08-01T00:47:08;99680.22;;;13.99;100.00
59443;BME280;45247;47.466;19.004;2022-08-01T00:49:38;99679.50;;;13.97;100.00
59443;BME280;45247;47.466;19.004;2022-08-01T00:52:08;99681.16;;;13.87;100.00
59443;BME280;45247;47.466;19.004;2022-08-01T00:54:37;99678.50;;;13.87;100.00
59443;BME280;45247;47.466;19.004;2022-08-01T00:57:05;99681.63;;;13.81;100.00
59443;BME280;45247;47.466;19.004;2022-08-01T00:59:36;99686.22;;;13.79;100.00
59443;BME280;45247;47.466;19.004;2022-08-01T01:02:06;99690.06;;;13.75;100.00
59443;BME280;45247;47.466;19.004;2022-08-01T01:04:42;99689.09;;;13.76;100.00
59443;BME280;45247;47.466;19.004;2022-08-01T01:07:17;99684.03;;;13.73;100.00
59443;BME280;45247;47.466;19.004;2022-08-01T01:09:52;99691.97;;;13.73;100.00
59443;BME280;45247;47.466;19.004;2022-08-01T01:12:28;99688.13;;;13.77;100.00
59443;BME280;45247;47.466;19.004;2022-08-01T01:15:06;99694.06;;;13.81;100.00
59443;BME280;45247;47.466;19.004;2022-08-01T01:17:37;99695.38;;;13.75;100.00
59443;BME280;45247;47.466;19.004;2022-08-01T01:20:21;99701.41;;;13.77;100.00
59443;BME280;45247;47.466;19.004;2022-08-01T01:22:59;99700.69;;;13.75;100.00
59443;BME280;45247;47.466;19.004;2022-08-01T01:25:41;99702.38;;;13.76;100.00
59443;BME280;45247;47.466;19.004;2022-08-01T01:28:19;99700.91;;;13.72;100.00
59443;BME280;45247;47.466;19.004;2022-08-01T01:30:51;99687.53;;;13.73;100.00
59443;BME280;45247;47.466;19.004;2022-08-01T01:33:22;99693.66;;;13.74;100.00
59443;BME280;45247;47.466;19.004;2022-08-01T01:35:55;99692.34;;;13.68;100.00
59443;BME280;45247;47.466;19.004;2022-08-01T01:38:28;99686.19;;;13.68;100.00
59443;BME280;45247;47.466;19.004;2022-08-01T01:40:57;99683.75;;;13.65;100.00
59443;BME280;45247;47.466;19.004;2022-08-01T01:43:29;99691.94;;;13.62;100.00
59443;BME280;45247;47.466;19.004;2022-08-01T01:46:01;99674.59;;;13.58;100.00
59443;BME280;45247;47.466;19.004;2022-08-01T01:48:31;99689.91;;;13.65;100.00
59443;BME280;45247;47.466;19.004;2022-08-01T01:51:00;99679.69;;;13.72;100.00
59443;BME280;45247;47.466;19.004;2022-08-01T01:53:30;99676.56;;;13.78;100.00
59443;BME280;45247;47.466;19.004;2022-08-01T01:56:01;99675.38;;;13.82;100.00
59443;BME280;45247;47.466;19.004;2022-08-01T01:58:31;99671.03;;;13.81;100.00
59443;BME280;45247;47.466;19.004;2022-08-01T02:01:02;99672.09;;;13.78;100.00
59443;BME280;45247;47.466;19.004;2022-08-01T02:03:40;99670.31;;;13.79;100.00
59443;BME280;45247;47.466;19.004;2022-08-01T02:06:12;99671.75;;;13.83;100.00
59443;BME280;45247;47.466;19.004;2022-08-01T02:08:42;99667.06;;;13.87;100.00
59443;BME280;45247;47.466;19.004;2022-08-01T02:11:11;99667.78;;;13.89;100.00
59443;BME280;45247;47.466;19.004;2022-08-01T02:13:53;99664.53;;;13.85;100.00
59443;BME280;45247;47.466;19.004;2022-08-01T02:16:26;99670.19;;;13.81;100.00
59443;BME280;45247;47.466;19.004;2022-08-01T02:18:55;99659.72;;;13.79;100.00
59443;BME280;45247;47.466;19.004;2022-08-01T02:21:27;99661.63;;;13.77;100.00
59443;BME280;45247;47.466;19.004;2022-08-01T02:24:00;99662.69;;;13.74;100.00
59443;BME280;45247;47.466;19.004;2022-08-01T02:26:32;99650.97;;;13.66;100.00
59443;BME280;45247;47.466;19.004;2022-08-01T02:29:06;99650.88;;;13.67;100.00
59443;BME280;45247;47.466;19.004;2022-08-01T02:31:39;99653.88;;;13.63;100.00
59443;BME280;45247;47.466;19.004;2022-08-01T02:34:13;99650.75;;;13.58;100.00
59443;BME280;45247;47.466;19.004;2022-08-01T02:36:45;99648.09;;;13.58;100.00
59443;BME280;45247;47.466;19.004;2022-08-01T02:39:16;99659.41;;;13.60;100.00
59443;BME280;45247;47.466;19.004;2022-08-01T02:41:47;99657.72;;;13.59;100.00
59443;BME280;45247;47.466;19.004;2022-08-01T02:44:21;99653.25;;;13.59;100.00
59443;BME280;45247;47.466;19.004;2022-08-01T02:46:56;99652.69;;;13.67;100.00
59443;BME280;45247;47.466;19.004;2022-08-01T02:49:31;99664.47;;;13.63;100.00
59443;BME280;45247;47.466;19.004;2022-08-01T02:52:03;99658.56;;;13.59;100.00
59443;BME280;45247;47.466;19.004;2022-08-01T02:54:33;99656.88;;;13.58;100.00
59443;BME280;45247;47.466;19.004;2022-08-01T02:57:02;99657.47;;;13.62;100.00
59443;BME280;45247;47.466;19.004;2022-08-01T02:59:34;99647.03;;;13.71;100.00
59443;BME280;45247;47.466;19.004;2022-08-01T03:02:09;99654.63;;;13.87;100.00
59443;BME280;45247;47.466;19.004;2022-08-01T03:04:39;99643.31;;;14.08;100.00
59443;BME280;45247;47.466;19.004;2022-08-01T03:07:10;99640.69;;;14.19;100.00
59443;BME280;45247;47.466;19.004;2022-08-01T03:09:42;99649.25;;;14.22;100.00
59443;BME280;45247;47.466;19.004;2022-08-01T03:12:14;99639.25;;;14.15;100.00
59443;BME280;45247;47.466;19.004;2022-08-01T03:14:44;99642.72;;;14.15;100.00
59443;BME280;45247;47.466;19.004;2022-08-01T03:17:18;99642.47;;;14.07;100.00
59443;BME280;45247;47.466;19.004;2022-08-01T03:19:48;99645.63;;;14.01;100.00
59443;BME280;45247;47.466;19.004;2022-08-01T03:22:18;99637.06;;;13.97;100.00
59443;BME280;45247;47.466;19.004;2022-08-01T03:24:52;99643.44;;;13.95;100.00
59443;BME280;45247;47.466;19.004;2022-08-01T03:27:22;99635.97;;;13.89;100.00
59443;BME280;45247;47.466;19.004;2022-08-01T03:29:51;99638.63;;;13.89;100.00
59443;BME280;45247;47.466;19.004;2022-08-01T03:32:24;99634.16;;;13.89;100.00
59443;BME280;45247;47.466;19.004;2022-08-01T03:34:54;99634.88;;;13.91;100.00
59443;BME280;45247;47.466;19.004;2022-08-01T03:37:25;99630.31;;;13.93;100.00
59443;BME280;45247;47.466;19.004;2022-08-01T03:39:57;99625.59;;;13.97;100.00
59443;BME280;45247;47.466;19.004;2022-08-01T03:42:32;99627.91;;;14.01;100.00
59443;BME280;45247;47.466;19.004;2022-08-01T03:45:04;99636.81;;;14.12;100.00
59443;BME280;45247;47.466;19.004;2022-08-01T03:47:42;99637.78;;;14.44;100.00
59443;BME280;45247;47.466;19.004;2022-08-01T03:50:13;99636.16;;;15.19;100.00
59443;BME280;45247;47.466;19.004;2022-08-01T03:52:43;99637.75;;;16.36;100.00
59443;BME280;45247;47.466;19.004;2022-08-01T03:55:14;99639.78;;;17.51;100.00
59443;BME280;45247;47.466;19.004;2022-08-01T03:57:45;99635.91;;;18.02;100.00
59443;BME280;45247;47.466;19.004;2022-08-01T04:00:14;99634.56;;;18.53;100.00
59443;BME280;45247;47.466;19.004;2022-08-01T04:02:47;99641.94;;;18.97;100.00
59443;BME280;45247;47.466;19.004;2022-08-01T04:05:16;99643.00;;;19.40;100.00
59443;BME280;45247;47.466;19.004;2022-08-01T04:07:46;99655.84;;;20.24;100.00
59443;BME280;45247;47.466;19.004;2022-08-01T04:10:14;99656.44;;;20.36;100.00
59443;BME280;45247;47.466;19.004;2022-08-01T04:12:43;99656.44;;;20.70;100.00
59443;BME280;45247;47.466;19.004;2022-08-01T04:15:12;99652.41;;;21.41;100.00
59443;BME280;45247;47.466;19.004;2022-08-01T04:17:40;99647.88;;;22.15;100.00
59443;BME280;45247;47.466;19.004;2022-08-01T04:20:11;99644.56;;;22.44;100.00
59443;BME280;45247;47.466;19.004;2022-08-01T04:22:39;99653.50;;;22.44;100.00
59443;BME280;45247;47.466;19.004;2022-08-01T04:25:12;99646.28;;;22.76;100.00
59443;BME280;45247;47.466;19.004;2022-08-01T04:27:50;99641.78;;;23.31;100.00
59443;BME280;45247;47.466;19.004;2022-08-01T04:30:24;99644.72;;;23.59;93.88
59443;BME280;45247;47.466;19.004;2022-08-01T04:32:55;99650.97;;;23.82;89.91
59443;BME280;45247;47.466;19.004;2022-08-01T04:35:27;99645.88;;;24.02;86.93
59443;BME280;45247;47.466;19.004;2022-08-01T04:38:19;99642.09;;;24.26;84.09
59443;BME280;45247;47.466;19.004;2022-08-01T04:40:50;99646.19;;;24.07;84.93
59443;BME280;45247;47.466;19.004;2022-08-01T04:43:20;99645.00;;;24.54;81.50
59443;BME280;45247;47.466;19.004;2022-08-01T04:45:49;99636.72;;;24.92;81.39
59443;BME280;45247;47.466;19.004;2022-08-01T04:48:18;99631.75;;;26.37;72.43
59443;BME280;45247;47.466;19.004;2022-08-01T04:50:50;99631.06;;;26.63;69.92
59443;BME280;45247;47.466;19.004;2022-08-01T04:53:19;99638.81;;;28.07;65.60
59443;BME280;45247;47.466;19.004;2022-08-01T04:55:49;99627.97;;;28.01;62.80
59443;BME280;45247;47.466;19.004;2022-08-01T04:58:17;99639.09;;;29.15;59.44
59443;BME280;45247;47.466;19.004;2022-08-01T05:00:46;99635.94;;;29.75;57.47
59443;BME280;45247;47.466;19.004;2022-08-01T05:03:14;99627.09;;;31.57;50.54
59443;BME280;45247;47.466;19.004;2022-08-01T05:05:42;99633.44;;;32.04;48.26
59443;BME280;45247;47.466;19.004;2022-08-01T05:08:12;99637.09;;;33.14;44.78
59443;BME280;45247;47.466;19.004;2022-08-01T05:10:40;99633.19;;;32.81;42.94
59443;BME280;45247;47.466;19.004;2022-08-01T05:13:08;99625.44;;;33.35;43.70
59443;BME280;45247;47.466;19.004;2022-08-01T05:15:37;99632.47;;;34.32;40.68
59443;BME280;45247;47.466;19.004;2022-08-01T05:18:05;99634.72;;;34.35;40.53
59443;BME280;45247;47.466;19.004;2022-08-01T05:20:35;99632.06;;;34.02;41.14
59443;BME280;45247;47.466;19.004;2022-08-01T05:23:03;99620.81;;;35.67;39.18
59443;BME280;45247;47.466;19.004;2022-08-01T05:25:37;99627.81;;;35.48;38.52
59443;BME280;45247;47.466;19.004;2022-08-01T05:28:23;99624.75;;;35.76;37.58
59443;BME280;45247;47.466;19.004;2022-08-01T05:30:51;99630.59;;;35.90;38.05
59443;BME280;45247;47.466;19.004;2022-08-01T05:33:21;99616.66;;;35.97;33.19
59443;BME280;45247;47.466;19.004;2022-08-01T05:35:49;99632.25;;;35.27;33.52
59443;BME280;45247;47.466;19.004;2022-08-01T05:38:18;99623.47;;;34.54;34.51
59443;BME280;45247;47.466;19.004;2022-08-01T05:40:47;99628.28;;;32.83;37.04
59443;BME280;45247;47.466;19.004;2022-08-01T05:43:15;99627.31;;;32.61;38.98
59443;BME280;45247;47.466;19.004;2022-08-01T05:45:43;99628.06;;;33.76;36.51
59443;BME280;45247;47.466;19.004;2022-08-01T05:48:12;99628.19;;;35.07;34.05
59443;BME280;45247;47.466;19.004;2022-08-01T05:50:40;99633.06;;;33.33;36.64
59443;BME280;45247;47.466;19.004;2022-08-01T05:53:09;99623.09;;;33.56;36.23
59443;BME280;45247;47.466;19.004;2022-08-01T05:55:37;99639.44;;;34.40;34.91
59443;BME280;45247;47.466;19.004;2022-08-01T05:58:06;99625.59;;;34.96;36.54
59443;BME280;45247;47.466;19.004;2022-08-01T06:00:38;99630.69;;;35.36;35.32
59443;BME280;45247;47.466;19.004;2022-08-01T06:03:06;99627.09;;;35.03;36.20
59443;BME280;45247;47.466;19.004;2022-08-01T06:05:34;99630.28;;;35.22;36.42
59443;BME280;45247;47.466;19.004;2022-08-01T06:08:03;99626.00;;;36.01;35.46
59443;BME280;45247;47.466;19.004;2022-08-01T06:10:31;99630.31;;;35.92;35.19
59443;BME280;45247;47.466;19.004;2022-08-01T06:12:59;99636.47;;;36.51;34.37
59443;BME280;45247;47.466;19.004;2022-08-01T06:15:31;99641.34;;;36.97;33.66
59443;BME280;45247;47.466;19.004;2022-08-01T06:18:00;99632.63;;;36.52;33.59
59443;BME280;45247;47.466;19.004;2022-08-01T06:20:28;99637.09;;;36.16;34.60
59443;BME280;45247;47.466;19.004;2022-08-01T06:22:56;99639.47;;;35.65;36.47
59443;BME280;45247;47.466;19.004;2022-08-01T06:25:26;99638.34;;;35.34;36.23
59443;BME280;45247;47.466;19.004;2022-08-01T06:27:54;99635.03;;;35.59;34.77
59443;BME280;45247;47.466;19.004;2022-08-01T06:30:22;99633.88;;;36.29;34.63
59443;BME280;45247;47.466;19.004;2022-08-01T06:32:52;99638.63;;;37.17;33.89
59443;BME280;45247;47.466;19.004;2022-08-01T06:35:22;99636.75;;;36.45;35.70
59443;BME280;45247;47.466;19.004;2022-08-01T06:37:50;99641.91;;;35.07;36.78
59443;BME280;45247;47.466;19.004;2022-08-01T06:40:18;99627.66;;;35.65;37.13
59443;BME280;45247;47.466;19.004;2022-08-01T06:42:46;99634.16;;;34.77;39.22
59443;BME280;45247;47.466;19.004;2022-08-01T06:45:15;99638.31;;;34.19;38.15
59443;BME280;45247;47.466;19.004;2022-08-01T06:47:44;99630.59;;;34.55;37.43
59443;BME280;45247;47.466;19.004;2022-08-01T06:50:18;99638.47;;;34.73;35.73
59443;BME280;45247;47.466;19.004;2022-08-01T06:52:46;99638.16;;;33.42;38.89
59443;BME280;45247;47.466;19.004;2022-08-01T06:55:14;99632.22;;;32.47;39.77
59443;BME280;45247;47.466;19.004;2022-08-01T06:57:47;99623.66;;;32.44;42.14
59443;BME280;45247;47.466;19.004;2022-08-01T07:00:17;99635.06;;;31.28;38.10
59443;BME280;45247;47.466;19.004;2022-08-01T07:02:49;99633.78;;;31.84;37.42
59443;BME280;45247;47.466;19.004;2022-08-01T07:05:19;99640.91;;;32.09;38.43
59443;BME280;45247;47.466;19.004;2022-08-01T07:07:47;99629.31;;;31.60;38.66
59443;BME280;45247;47.466;19.004;2022-08-01T07:10:16;99621.41;;;31.70;36.89
59443;BME280;45247;47.466;19.004;2022-08-01T07:12:44;99632.13;;;31.41;35.12
59443;BME280;45247;47.466;19.004;2022-08-01T07:15:12;99619.25;;;31.18;35.78
59443;BME280;45247;47.466;19.004;2022-08-01T07:17:42;99624.75;;;30.33;37.20
59443;BME280;45247;47.466;19.004;2022-08-01T07:20:12;99625.50;;;30.22;38.37
59443;BME280;45247;47.466;19.004;2022-08-01T07:22:43;99631.03;;;29.90;38.05
59443;BME280;45247;47.466;19.004;2022-08-01T07:25:13;99636.34;;;29.79;39.00
59443;BME280;45247;47.466;19.004;2022-08-01T07:27:42;99641.09;;;30.08;42.20
59443;BME280;45247;47.466;19.004;2022-08-01T07:30:10;99633.66;;;29.72;39.18
59443;BME280;45247;47.466;19.004;2022-08-01T07:32:39;99626.81;;;29.69;39.18
59443;BME280;45247;47.466;19.004;2022-08-01T07:35:08;99646.78;;;30.07;36.78
59443;BME280;45247;47.466;19.004;2022-08-01T07:37:36;99639.78;;;29.67;38.06
59443;BME280;45247;47.466;19.004;2022-08-01T07:40:17;99643.72;;;29.97;38.13
59443;BME280;45247;47.466;19.004;2022-08-01T07:42:45;99648.66;;;29.56;39.48
59443;BME280;45247;47.466;19.004;2022-08-01T07:45:16;99642.19;;;29.51;40.85
59443;BME280;45247;47.466;19.004;2022-08-01T07:47:44;99634.03;;;30.01;39.53
59443;BME280;45247;47.466;19.004;2022-08-01T07:50:13;99637.59;;;30.63;37.39
59443;BME280;45247;47.466;19.004;2022-08-01T07:52:41;99630.97;;;31.49;38.82
59443;BME280;45247;47.466;19.004;2022-08-01T07:55:10;99622.72;;;31.79;36.77
59443;BME280;45247;47.466;19.004;2022-08-01T07:57:43;99624.56;;;31.55;36.91
59443;BME280;45247;47.466;19.004;2022-08-01T08:00:12;99622.34;;;31.64;36.65
59443;BME280;45247;47.466;19.004;2022-08-01T08:02:41;99625.44;;;31.79;37.27
59443;BME280;45247;47.466;19.004;2022-08-01T08:05:09;99628.97;;;31.45;37.80
59443;BME280;45247;47.466;19.004;2022-08-01T08:07:37;99626.66;;;31.00;37.97
59443;BME280;45247;47.466;19.004;2022-08-01T08:10:06;99635.38;;;30.53;37.82
59443;BME280;45247;47.466;19.004;2022-08-01T08:12:34;99639.03;;;29.60;39.25
59443;BME280;45247;47.466;19.004;2022-08-01T08:15:05;99643.75;;;28.57;39.69
59443;BME280;45247;47.466;19.004;2022-08-01T08:17:33;99633.94;;;28.94;40.41
59443;BME280;45247;47.466;19.004;2022-08-01T08:20:04;99637.03;;;29.11;39.31
59443;BME280;45247;47.466;19.004;2022-08-01T08:22:35;99645.47;;;28.89;38.37
59443;BME280;45247;47.466;19.004;2022-08-01T08:25:06;99655.28;;;28.97;41.30
59443;BME280;45247;47.466;19.004;2022-08-01T08:27:37;99645.00;;;28.48;42.21
59443;BME280;45247;47.466;19.004;2022-08-01T08:30:08;99653.97;;;28.55;40.12
59443;BME280;45247;47.466;19.004;2022-08-01T08:32:38;99660.06;;;28.30;40.17
59443;BME280;45247;47.466;19.004;2022-08-01T08:35:07;99666.75;;;28.21;41.48
59443;BME280;45247;47.466;19.004;2022-08-01T08:37:38;99672.38;;;28.26;41.08
59443;BME280;45247;47.466;19.004;2022-08-01T08:40:14;99665.47;;;28.30;40.82
59443;BME280;45247;47.466;19.004;2022-08-01T08:42:44;99680.50;;;28.53;41.94
59443;BME280;45247;47.466;19.004;2022-08-01T08:45:15;99677.78;;;28.53;41.28
59443;BME280;45247;47.466;19.004;2022-08-01T08:47:43;99675.72;;;28.48;42.01
59443;BME280;45247;47.466;19.004;2022-08-01T08:50:15;99676.13;;;27.45;43.80
59443;BME280;45247;47.466;19.004;2022-08-01T08:52:44;99683.00;;;27.48;44.03
59443;BME280;45247;47.466;19.004;2022-08-01T08:55:15;99679.06;;;27.51;43.31
59443;BME280;45247;47.466;19.004;2022-08-01T08:57:45;99686.78;;;27.67;43.82
59443;BME280;45247;47.466;19.004;2022-08-01T09:00:15;99689.63;;;27.32;43.03
59443;BME280;45247;47.466;19.004;2022-08-01T09:02:45;99678.41;;;26.81;44.15
59443;BME280;45247;47.466;19.004;2022-08-01T09:05:16;99684.28;;;26.97;43.90
59443;BME280;45247;47.466;19.004;2022-08-01T09:07:45;99675.28;;;26.77;43.90
59443;BME280;45247;47.466;19.004;2022-08-01T09:10:14;99679.66;;;26.78;44.06
59443;BME280;45247;47.466;19.004;2022-08-01T09:13:06;99679.47;;;26.86;43.99
59443;BME280;45247;47.466;19.004;2022-08-01T09:15:43;99678.75;;;26.64;47.54
59443;BME280;45247;47.466;19.004;2022-08-01T09:18:29;99678.56;;;27.14;46.26
59443;BME280;45247;47.466;19.004;2022-08-01T09:21:13;99678.41;;;27.49;47.22
59443;BME280;45247;47.466;19.004;2022-08-01T09:23:45;99672.94;;;27.22;49.10
59443;BME280;45247;47.466;19.004;2022-08-01T09:26:21;99669.16;;;27.10;51.65
59443;BME280;45247;47.466;19.004;2022-08-01T09:28:56;99675.03;;;27.27;53.00
59443;BME280;45247;47.466;19.004;2022-08-01T09:31:28;99683.28;;;27.05;52.25
59443;BME280;45247;47.466;19.004;2022-08-01T09:34:04;99677.56;;;27.28;52.02
59443;BME280;45247;47.466;19.004;2022-08-01T09:36:46;99672.78;;;27.37;51.48
59443;BME280;45247;47.466;19.004;2022-08-01T09:39:21;99666.59;;;27.02;53.36
59443;BME280;45247;47.466;19.004;2022-08-01T09:41:50;99672.56;;;27.38;52.82
59443;BME280;45247;47.466;19.004;2022-08-01T09:44:36;99676.69;;;27.21;52.81
59443;BME280;45247;47.466;19.004;2022-08-01T09:47:11;99669.25;;;27.43;52.70
59443;BME280;45247;47.466;19.004;2022-08-01T09:49:42;99665.50;;;27.57;53.14
59443;BME280;45247;47.466;19.004;2022-08-01T09:52:20;99671.72;;;27.44;52.29
59443;BME280;45247;47.466;19.004;2022-08-01T09:54:56;99669.25;;;27.43;51.22
59443;BME280;45247;47.466;19.004;2022-08-01T09:57:25;99666.34;;;27.64;52.73
59443;BME280;45247;47.466;19.004;2022-08-01T09:59:55;99673.88;;;28.02;50.22
59443;BME280;45247;47.466;19.004;2022-08-01T10:02:30;99672.59;;;28.44;50.34
59443;BME280;45247;47.466;19.004;2022-08-01T10:05:01;99672.56;;;28.51;48.97
59443;BME280;45247;47.466;19.004;2022-08-01T10:07:35;99676.75;;;29.05;46.44
59443;BME280;45247;47.466;19.004;2022-08-01T10:10:21;99670.16;;;28.81;47.39
59443;BME280;45247;47.466;19.004;2022-08-01T10:12:55;99665.72;;;28.93;46.46
59443;BME280;45247;47.466;19.004;2022-08-01T10:15:25;99678.91;;;29.35;45.60
59443;BME280;45247;47.466;19.004;2022-08-01T10:18:07;99689.22;;;29.58;44.77
59443;BME280;45247;47.466;19.004;2022-08-01T10:20:52;99684.53;;;29.33;45.00
59443;BME280;45247;47.466;19.004;2022-08-01T10:23:24;99677.19;;;28.95;46.19
59443;BME280;45247;47.466;19.004;2022-08-01T10:26:07;99673.25;;;28.91;45.58
59443;BME280;45247;47.466;19.004;2022-08-01T10:28:36;99676.09;;;29.10;46.11
59443;BME280;45247;47.466;19.004;2022-08-01T10:31:06;99679.47;;;29.05;43.88
59443;BME280;45247;47.466;19.004;2022-08-01T10:33:41;99670.50;;;29.36;45.83
59443;BME280;45247;47.466;19.004;2022-08-01T10:36:19;99666.03;;;29.80;46.08
59443;BME280;45247;47.466;19.004;2022-08-01T10:38:49;99659.84;;;29.73;44.23
59443;BME280;45247;47.466;19.004;2022-08-01T10:41:18;99652.66;;;29.79;44.19
59443;BME280;45247;47.466;19.004;2022-08-01T10:43:47;99659.94;;;29.60;44.78
59443;BME280;45247;47.466;19.004;2022-08-01T10:46:17;99652.44;;;29.80;44.00
59443;BME280;45247;47.466;19.004;2022-08-01T10:48:55;99644.53;;;30.22;45.97
59443;BME280;45247;47.466;19.004;2022-08-01T10:51:27;99653.75;;;30.21;43.13
59443;BME280;45247;47.466;19.004;2022-08-01T10:54:15;99654.16;;;30.00;44.09
59443;BME280;45247;47.466;19.004;2022-08-01T10:56:45;99641.38;;;29.75;44.15
59443;BME280;45247;47.466;19.004;2022-08-01T10:59:15;99645.09;;;30.06;46.61
59443;BME280;45247;47.466;19.004;2022-08-01T11:02:07;99642.84;;;29.78;44.84
59443;BME280;45247;47.466;19.004;2022-08-01T11:04:51;99636.59;;;29.77;47.05
59443;BME280;45247;47.466;19.004;2022-08-01T11:07:24;99636.22;;;30.35;45.03
59443;BME280;45247;47.466;19.004;2022-08-01T11:10:04;99632.59;;;30.23;43.00
59443;BME280;45247;47.466;19.004;2022-08-01T11:12:41;99634.81;;;29.89;41.20
59443;BME280;45247;47.466;19.004;2022-08-01T11:15:23;99635.41;;;29.91;41.46
59443;BME280;45247;47.466;19.004;2022-08-01T11:17:57;99633.66;;;29.97;42.90
59443;BME280;45247;47.466;19.004;2022-08-01T11:20:29;99617.31;;;29.79;42.57
59443;BME280;45247;47.466;19.004;2022-08-01T11:23:16;99640.78;;;29.41;43.29
59443;BME280;45247;47.466;19.004;2022-08-01T11:26:07;99640.31;;;28.75;45.85
59443;BME280;45247;47.466;19.004;2022-08-01T11:28:37;99641.41;;;28.67;46.64
59443;BME280;45247;47.466;19.004;2022-08-01T11:31:35;99636.41;;;29.09;46.87
59443;BME280;45247;47.466;19.004;2022-08-01T11:34:04;99627.69;;;28.93;46.49
59443;BME280;45247;47.466;19.004;2022-08-01T11:36:34;99626.25;;;28.91;45.85
59443;BME280;45247;47.466;19.004;2022-08-01T11:39:22;99639.91;;;28.71;45.87
59443;BME280;45247;47.466;19.004;2022-08-01T11:41:51;99627.75;;;28.87;47.63
59443;BME280;45247;47.466;19.004;2022-08-01T11:44:23;99633.44;;;29.17;48.31
59443;BME280;45247;47.466;19.004;2022-08-01T11:46:59;99629.56;;;29.38;45.85
59443;BME280;45247;47.466;19.004;2022-08-01T11:49:56;99627.09;;;28.91;44.58
59443;BME280;45247;47.466;19.004;2022-08-01T11:52:29;99623.28;;;29.06;45.29
59443;BME280;45247;47.466;19.004;2022-08-01T11:55:07;99629.09;;;29.09;47.49
59443;BME280;45247;47.466;19.004;2022-08-01T11:57:37;99624.25;;;29.18;45.24
59443;BME280;45247;47.466;19.004;2022-08-01T12:00:11;99629.69;;;29.11;47.51
59443;BME280;45247;47.466;19.004;2022-08-01T12:02:43;99631.31;;;29.26;46.20
59443;BME280;45247;47.466;19.004;2022-08-01T12:05:14;99628.31;;;28.95;48.66
59443;BME280;45247;47.466;19.004;2022-08-01T12:07:53;99624.41;;;29.23;46.83
59443;BME280;45247;47.466;19.004;2022-08-01T12:10:23;99639.91;;;28.71;42.10
59443;BME280;45247;47.466;19.004;2022-08-01T12:12:53;99632.69;;;28.52;43.91
59443;BME280;45247;47.466;19.004;2022-08-01T12:15:22;99628.34;;;28.37;44.29
59443;BME280;45247;47.466;19.004;2022-08-01T12:17:55;99618.75;;;28.41;44.67
59443;BME280;45247;47.466;19.004;2022-08-01T12:20:27;99618.22;;;28.64;47.07
59443;BME280;45247;47.466;19.004;2022-08-01T12:23:00;99630.19;;;29.02;46.63
59443;BME280;45247;47.466;19.004;2022-08-01T12:25:29;99636.72;;;28.87;46.36
59443;BME280;45247;47.466;19.004;2022-08-01T12:28:00;99632.53;;;28.91;44.74
59443;BME280;45247;47.466;19.004;2022-08-01T12:30:30;99644.53;;;28.70;47.10
59443;BME280;45247;47.466;19.004;2022-08-01T12:33:03;99630.84;;;28.32;45.64
59443;BME280;45247;47.466;19.004;2022-08-01T12:35:32;99626.09;;;28.14;46.88
59443;BME280;45247;47.466;19.004;2022-08-01T12:38:05;99624.66;;;28.05;46.08
59443;BME280;45247;47.466;19.004;2022-08-01T12:40:35;99636.34;;;27.92;45.30
59443;BME280;45247;47.466;19.004;2022-08-01T12:43:16;99636.13;;;27.74;45.94
59443;BME280;45247;47.466;19.004;2022-08-01T12:45:55;99620.28;;;27.98;48.27
59443;BME280;45247;47.466;19.004;2022-08-01T12:48:24;99615.78;;;28.50;47.40
59443;BME280;45247;47.466;19.004;2022-08-01T12:50:53;99623.28;;;28.54;44.31
59443;BME280;45247;47.466;19.004;2022-08-01T12:53:26;99619.34;;;28.50;43.77
59443;BME280;45247;47.466;19.004;2022-08-01T12:56:06;99620.41;;;28.42;44.19
59443;BME280;45247;47.466;19.004;2022-08-01T12:58:34;99611.19;;;28.50;45.01
59443;BME280;45247;47.466;19.004;2022-08-01T13:01:04;99613.50;;;28.33;45.89
59443;BME280;45247;47.466;19.004;2022-08-01T13:03:33;99610.69;;;28.02;47.65
59443;BME280;45247;47.466;19.004;2022-08-01T13:06:10;99620.06;;;28.06;47.33
59443;BME280;45247;47.466;19.004;2022-08-01T13:08:40;99609.16;;;28.26;48.02
59443;BME280;45247;47.466;19.004;2022-08-01T13:11:10;99613.69;;;28.52;48.81
59443;BME280;45247;47.466;19.004;2022-08-01T13:13:43;99629.91;;;28.65;50.93